Houlton, ME

7:45 PM EDT on September 18, 2014 (GMT -0400)
Houlton International | Change Station
CLOSE
Current Station
Airport
Location: Houlton,
Elevation: 492 ft
Nearby Weather Stations
Active Advisory: Freeze Warning

Elev 492 ft 46.12 °N, 67.79 °W | Updated 52 minutes ago

Mostly Cloudy
Mostly Cloudy
46 °F
Feels Like 44 °F
N
5
Wind Variable Wind from NNW

Today
High -- | Low -- °F
--% Chance of Precip.
Yesterday
High -- | Low -- °F
Precip. -- in
6:13 AM 6:36 PM
Waning Crescent, 23% visible
Pressure 30.04 in
Visibility 10.0 miles
Clouds Mostly Cloudy 6500 ft
Windchill 44 °F
Dew Point 33 °F
Humidity 61%
Rainfall 0.00 in
Snow Depth Not available.
UV 0 out of 12
Pollen 2.10 out of 12
Ozone Good
PM2.5 Good
Flu Activity Not available.
METAR KHUL 182253Z AUTO 34004KT 10SM BKN065 08/01 A3002 RMK AO2 SLP170 T00780006

More Conditions Fewer Conditions

Pressure 30.04 in
Visibility 10.0 miles
Clouds Mostly Cloudy 6500 ft
Windchill 44 °F
Dew Point 33 °F
Humidity 61%
Rainfall 0.00 in
Snow Depth Not available.
UV 0 out of 12
Pollen 2.10 out of 12
Ozone Good
PM2.5 Good
Flu Activity Not available.
METAR KHUL 182253Z AUTO 34004KT 10SM BKN065 08/01 A3002 RMK AO2 SLP170 T00780006

More Conditions Fewer Conditions

10-Day Weather Forecast

Almanac

Astronomy

Sep. 18, 2014 Rise Set
Actual Time 6:13 AM EDT 6:36 PM EDT
Civil Twilight 5:42 AM EDT 7:06 PM EDT
Nautical Twilight 5:07 AM EDT 7:42 PM EDT
Astronomical Twilight 4:30 AM EDT 8:18 PM EDT
Moon 12:48 AM EDT 3:37 PM EDT
Length of Visible Light 13h 23m
Length of Day
12h 23m
Tomorrow will be 3m 14s shorter.
Waning Crescent, 23% of the Moon is Illuminated
Today
Waning Crescent
Sep 24
New
Oct 1
First Quarter
Oct 8
Full
Oct 15
Last Quarter

Today's Extremes

State Highs State Lows

Community

WunderPhotos

Upload Photos

1,754,489 photos uploaded!

WunderBlogs® & News

By Dr. Jeff Masters
Director of Meteorology, Weather Underground
By Kari Strenfel
Meteorologist, Weather Underground
By Christopher C. Burt
Weather Historian, Weather Underground
September 18, 2014
September 18, 2014
September 18, 2014

Nearby

Air Quality

  Air Quality AQ Index Pollutant
Yesterday Good
PM2.5
Yesterday Good
OZONE
Current Good
PM2.5
Current Good
OZONE
Thursday Good
OZONE
Thursday Good
PM2.5
Friday Good
OZONE
Friday Good
PM2.5
Saturday Good
OZONE
Saturday Good
PM2.5

Snow Depth

Station Depth Elevation
No new snow has been reported.

Earthquake Activity

City Distance Mag. Time & Date
No recent earthquake activity has been reported nearby.
Minimum magnitude displayed is 2.5.

Coastal Water Temperatures

Place Temperature
No Stations Reporting

Nearby Weather Stations